sensor_id;sensor_type;location;lat;lon;timestamp;P1;durP1;ratioP1;P2;durP2;ratioP2
40022;SDS011;25713;-35.352;149.036;2023-04-06T00:01:38;1.80;;;0.90;;
40022;SDS011;25713;-35.352;149.036;2023-04-06T00:04:10;2.15;;;1.10;;
40022;SDS011;25713;-35.352;149.036;2023-04-06T00:06:39;1.05;;;0.90;;
40022;SDS011;25713;-35.352;149.036;2023-04-06T00:09:09;1.35;;;0.90;;
40022;SDS011;25713;-35.352;149.036;2023-04-06T00:11:39;3.35;;;0.98;;
40022;SDS011;25713;-35.352;149.036;2023-04-06T00:14:08;4.60;;;0.80;;
40022;SDS011;25713;-35.352;149.036;2023-04-06T00:16:38;1.40;;;0.80;;
40022;SDS011;25713;-35.352;149.036;2023-04-06T00:19:09;1.33;;;0.90;;
40022;SDS011;25713;-35.352;149.036;2023-04-06T00:21:39;1.58;;;0.80;;
40022;SDS011;25713;-35.352;149.036;2023-04-06T00:24:08;1.38;;;0.80;;
40022;SDS011;25713;-35.352;149.036;2023-04-06T00:26:38;1.30;;;0.80;;
40022;SDS011;25713;-35.352;149.036;2023-04-06T00:29:07;4.05;;;1.00;;
40022;SDS011;25713;-35.352;149.036;2023-04-06T00:31:36;2.55;;;1.00;;
40022;SDS011;25713;-35.352;149.036;2023-04-06T00:34:06;2.40;;;0.88;;
40022;SDS011;25713;-35.352;149.036;2023-04-06T00:36:37;4.00;;;1.57;;
40022;SDS011;25713;-35.352;149.036;2023-04-06T00:39:07;1.27;;;0.73;;
40022;SDS011;25713;-35.352;149.036;2023-04-06T00:41:37;1.40;;;0.80;;
40022;SDS011;25713;-35.352;149.036;2023-04-06T00:44:12;2.50;;;0.80;;
40022;SDS011;25713;-35.352;149.036;2023-04-06T00:46:41;1.73;;;0.77;;
40022;SDS011;25713;-35.352;149.036;2023-04-06T00:49:13;4.43;;;0.80;;
40022;SDS011;25713;-35.352;149.036;2023-04-06T00:51:42;1.65;;;0.70;;
40022;SDS011;25713;-35.352;149.036;2023-04-06T00:54:12;2.22;;;0.70;;
40022;SDS011;25713;-35.352;149.036;2023-04-06T00:56:42;5.20;;;1.35;;
40022;SDS011;25713;-35.352;149.036;2023-04-06T00:59:12;3.75;;;1.08;;
40022;SDS011;25713;-35.352;149.036;2023-04-06T01:01:42;3.75;;;0.98;;
40022;SDS011;25713;-35.352;149.036;2023-04-06T01:04:29;2.92;;;0.70;;
40022;SDS011;25713;-35.352;149.036;2023-04-06T01:07:00;3.70;;;1.27;;
40022;SDS011;25713;-35.352;149.036;2023-04-06T01:09:38;3.15;;;1.20;;
40022;SDS011;25713;-35.352;149.036;2023-04-06T01:12:14;1.20;;;0.80;;
40022;SDS011;25713;-35.352;149.036;2023-04-06T01:14:44;2.10;;;1.00;;
40022;SDS011;25713;-35.352;149.036;2023-04-06T01:17:13;25.92;;;2.42;;
40022;SDS011;25713;-35.352;149.036;2023-04-06T01:19:45;21.10;;;2.30;;
40022;SDS011;25713;-35.352;149.036;2023-04-06T01:22:24;7.07;;;1.30;;
40022;SDS011;25713;-35.352;149.036;2023-04-06T01:25:03;2.25;;;0.90;;
40022;SDS011;25713;-35.352;149.036;2023-04-06T01:27:50;3.25;;;1.17;;
40022;SDS011;25713;-35.352;149.036;2023-04-06T01:30:23;3.33;;;1.00;;
40022;SDS011;25713;-35.352;149.036;2023-04-06T01:32:57;15.93;;;1.77;;
40022;SDS011;25713;-35.352;149.036;2023-04-06T01:35:52;7.07;;;1.35;;
40022;SDS011;25713;-35.352;149.036;2023-04-06T01:38:23;2.65;;;0.90;;
40022;SDS011;25713;-35.352;149.036;2023-04-06T01:40:53;3.17;;;1.03;;
40022;SDS011;25713;-35.352;149.036;2023-04-06T01:43:25;2.90;;;1.08;;
40022;SDS011;25713;-35.352;149.036;2023-04-06T01:46:20;2.20;;;0.85;;
40022;SDS011;25713;-35.352;149.036;2023-04-06T01:48:50;1.67;;;0.80;;
40022;SDS011;25713;-35.352;149.036;2023-04-06T01:51:32;2.45;;;0.90;;
40022;SDS011;25713;-35.352;149.036;2023-04-06T01:54:06;2.17;;;0.93;;
40022;SDS011;25713;-35.352;149.036;2023-04-06T01:56:53;3.42;;;0.90;;
40022;SDS011;25713;-35.352;149.036;2023-04-06T01:59:31;2.42;;;0.82;;
40022;SDS011;25713;-35.352;149.036;2023-04-06T02:02:06;2.03;;;0.80;;
40022;SDS011;25713;-35.352;149.036;2023-04-06T02:04:37;1.58;;;0.70;;
40022;SDS011;25713;-35.352;149.036;2023-04-06T02:07:11;2.47;;;0.85;;
40022;SDS011;25713;-35.352;149.036;2023-04-06T02:09:42;1.42;;;0.65;;
40022;SDS011;25713;-35.352;149.036;2023-04-06T02:12:20;1.23;;;0.77;;
40022;SDS011;25713;-35.352;149.036;2023-04-06T02:14:49;2.78;;;1.00;;
40022;SDS011;25713;-35.352;149.036;2023-04-06T02:17:19;1.33;;;0.68;;
40022;SDS011;25713;-35.352;149.036;2023-04-06T02:19:48;2.03;;;1.10;;
40022;SDS011;25713;-35.352;149.036;2023-04-06T02:22:18;1.08;;;0.88;;
40022;SDS011;25713;-35.352;149.036;2023-04-06T02:24:50;1.27;;;0.90;;
40022;SDS011;25713;-35.352;149.036;2023-04-06T02:27:19;1.10;;;0.90;;
40022;SDS011;25713;-35.352;149.036;2023-04-06T02:29:49;2.83;;;1.38;;
40022;SDS011;25713;-35.352;149.036;2023-04-06T02:32:21;2.17;;;1.13;;
40022;SDS011;25713;-35.352;149.036;2023-04-06T02:34:50;1.33;;;0.90;;
40022;SDS011;25713;-35.352;149.036;2023-04-06T02:37:21;1.65;;;1.10;;
40022;SDS011;25713;-35.352;149.036;2023-04-06T02:39:52;1.00;;;0.90;;
40022;SDS011;25713;-35.352;149.036;2023-04-06T02:42:22;3.25;;;1.20;;
40022;SDS011;25713;-35.352;149.036;2023-04-06T02:44:53;4.10;;;1.20;;
40022;SDS011;25713;-35.352;149.036;2023-04-06T02:47:26;5.07;;;1.13;;
40022;SDS011;25713;-35.352;149.036;2023-04-06T02:49:56;3.40;;;1.00;;
40022;SDS011;25713;-35.352;149.036;2023-04-06T02:52:26;2.03;;;1.10;;
40022;SDS011;25713;-35.352;149.036;2023-04-06T02:54:57;4.60;;;1.17;;
40022;SDS011;25713;-35.352;149.036;2023-04-06T02:57:32;3.55;;;1.00;;
40022;SDS011;25713;-35.352;149.036;2023-04-06T03:00:02;4.32;;;1.67;;
40022;SDS011;25713;-35.352;149.036;2023-04-06T03:02:39;1.25;;;0.90;;
40022;SDS011;25713;-35.352;149.036;2023-04-06T03:05:12;2.13;;;0.98;;
40022;SDS011;25713;-35.352;149.036;2023-04-06T03:07:44;1.10;;;0.90;;
40022;SDS011;25713;-35.352;149.036;2023-04-06T03:10:27;1.92;;;1.08;;
40022;SDS011;25713;-35.352;149.036;2023-04-06T03:12:56;2.22;;;0.95;;
40022;SDS011;25713;-35.352;149.036;2023-04-06T03:15:38;2.42;;;1.08;;
40022;SDS011;25713;-35.352;149.036;2023-04-06T03:18:17;2.55;;;1.00;;
40022;SDS011;25713;-35.352;149.036;2023-04-06T03:20:50;2.50;;;1.10;;
40022;SDS011;25713;-35.352;149.036;2023-04-06T03:23:20;3.50;;;1.25;;
40022;SDS011;25713;-35.352;149.036;2023-04-06T03:25:55;2.50;;;1.25;;
40022;SDS011;25713;-35.352;149.036;2023-04-06T03:28:25;2.13;;;1.20;;
40022;SDS011;25713;-35.352;149.036;2023-04-06T03:30:58;3.10;;;1.00;;
40022;SDS011;25713;-35.352;149.036;2023-04-06T03:33:45;3.10;;;1.10;;
40022;SDS011;25713;-35.352;149.036;2023-04-06T03:36:22;2.15;;;1.02;;
40022;SDS011;25713;-35.352;149.036;2023-04-06T03:38:52;5.18;;;1.38;;
40022;SDS011;25713;-35.352;149.036;2023-04-06T03:41:24;2.67;;;1.25;;
40022;SDS011;25713;-35.352;149.036;2023-04-06T03:44:10;1.40;;;1.10;;
40022;SDS011;25713;-35.352;149.036;2023-04-06T03:46:40;2.30;;;1.20;;
40022;SDS011;25713;-35.352;149.036;2023-04-06T03:49:11;1.92;;;1.13;;
40022;SDS011;25713;-35.352;149.036;2023-04-06T03:51:43;1.00;;;0.90;;
40022;SDS011;25713;-35.352;149.036;2023-04-06T03:54:12;2.05;;;1.10;;
40022;SDS011;25713;-35.352;149.036;2023-04-06T03:56:45;3.65;;;1.20;;
40022;SDS011;25713;-35.352;149.036;2023-04-06T03:59:14;2.67;;;1.23;;
40022;SDS011;25713;-35.352;149.036;2023-04-06T04:01:43;2.95;;;1.10;;
40022;SDS011;25713;-35.352;149.036;2023-04-06T04:04:13;4.78;;;1.23;;
40022;SDS011;25713;-35.352;149.036;2023-04-06T04:06:42;2.10;;;1.00;;
40022;SDS011;25713;-35.352;149.036;2023-04-06T04:09:12;3.08;;;1.10;;
40022;SDS011;25713;-35.352;149.036;2023-04-06T04:11:42;2.20;;;1.13;;
40022;SDS011;25713;-35.352;149.036;2023-04-06T04:14:14;1.25;;;1.02;;
40022;SDS011;25713;-35.352;149.036;2023-04-06T04:16:44;1.92;;;1.10;;
40022;SDS011;25713;-35.352;149.036;2023-04-06T04:19:13;3.85;;;1.42;;
40022;SDS011;25713;-35.352;149.036;2023-04-06T04:21:44;2.30;;;1.20;;
40022;SDS011;25713;-35.352;149.036;2023-04-06T04:24:18;1.98;;;1.48;;
40022;SDS011;25713;-35.352;149.036;2023-04-06T04:26:49;1.70;;;1.30;;
40022;SDS011;25713;-35.352;149.036;2023-04-06T04:29:20;6.43;;;1.13;;
40022;SDS011;25713;-35.352;149.036;2023-04-06T04:31:51;1.90;;;1.20;;
40022;SDS011;25713;-35.352;149.036;2023-04-06T04:34:20;2.63;;;1.30;;
40022;SDS011;25713;-35.352;149.036;2023-04-06T04:36:51;1.55;;;1.38;;
40022;SDS011;25713;-35.352;149.036;2023-04-06T04:39:28;2.45;;;1.10;;
40022;SDS011;25713;-35.352;149.036;2023-04-06T04:42:05;2.35;;;1.40;;
40022;SDS011;25713;-35.352;149.036;2023-04-06T04:44:36;3.08;;;1.70;;
40022;SDS011;25713;-35.352;149.036;2023-04-06T04:47:06;2.13;;;1.40;;
40022;SDS011;25713;-35.352;149.036;2023-04-06T04:49:44;1.40;;;1.30;;
40022;SDS011;25713;-35.352;149.036;2023-04-06T04:52:19;3.58;;;1.52;;
40022;SDS011;25713;-35.352;149.036;2023-04-06T04:55:06;4.53;;;1.45;;
40022;SDS011;25713;-35.352;149.036;2023-04-06T04:57:38;2.35;;;1.40;;
40022;SDS011;25713;-35.352;149.036;2023-04-06T05:00:08;3.28;;;1.38;;
40022;SDS011;25713;-35.352;149.036;2023-04-06T05:02:40;2.20;;;1.23;;
40022;SDS011;25713;-35.352;149.036;2023-04-06T05:05:22;1.75;;;1.40;;
40022;SDS011;25713;-35.352;149.036;2023-04-06T05:07:52;1.90;;;1.55;;
40022;SDS011;25713;-35.352;149.036;2023-04-06T05:10:36;3.35;;;1.20;;
40022;SDS011;25713;-35.352;149.036;2023-04-06T05:13:09;2.78;;;1.20;;
40022;SDS011;25713;-35.352;149.036;2023-04-06T05:15:39;2.70;;;1.80;;
40022;SDS011;25713;-35.352;149.036;2023-04-06T05:18:21;2.40;;;1.50;;
40022;SDS011;25713;-35.352;149.036;2023-04-06T05:20:50;1.40;;;1.30;;
40022;SDS011;25713;-35.352;149.036;2023-04-06T05:23:26;2.78;;;1.30;;
40022;SDS011;25713;-35.352;149.036;2023-04-06T05:25:57;2.60;;;1.35;;
40022;SDS011;25713;-35.352;149.036;2023-04-06T05:28:30;1.83;;;1.10;;
40022;SDS011;25713;-35.352;149.036;2023-04-06T05:31:01;1.40;;;1.15;;
40022;SDS011;25713;-35.352;149.036;2023-04-06T05:33:39;1.45;;;1.10;;
40022;SDS011;25713;-35.352;149.036;2023-04-06T05:36:12;2.05;;;1.23;;
40022;SDS011;25713;-35.352;149.036;2023-04-06T05:38:44;1.75;;;1.20;;
40022;SDS011;25713;-35.352;149.036;2023-04-06T05:41:33;2.22;;;1.30;;
40022;SDS011;25713;-35.352;149.036;2023-04-06T05:44:06;2.65;;;1.40;;
40022;SDS011;25713;-35.352;149.036;2023-04-06T05:46:36;2.58;;;1.27;;
40022;SDS011;25713;-35.352;149.036;2023-04-06T05:49:08;2.35;;;1.30;;
40022;SDS011;25713;-35.352;149.036;2023-04-06T05:51:37;1.45;;;1.30;;
40022;SDS011;25713;-35.352;149.036;2023-04-06T05:54:07;2.42;;;1.20;;
40022;SDS011;25713;-35.352;149.036;2023-04-06T05:56:36;1.45;;;1.10;;
40022;SDS011;25713;-35.352;149.036;2023-04-06T05:59:09;1.58;;;1.20;;
40022;SDS011;25713;-35.352;149.036;2023-04-06T06:01:39;2.05;;;1.23;;
40022;SDS011;25713;-35.352;149.036;2023-04-06T06:04:08;1.40;;;1.30;;
40022;SDS011;25713;-35.352;149.036;2023-04-06T06:06:39;2.30;;;1.25;;
40022;SDS011;25713;-35.352;149.036;2023-04-06T06:09:18;2.05;;;1.20;;
40022;SDS011;25713;-35.352;149.036;2023-04-06T06:11:59;3.15;;;1.40;;
40022;SDS011;25713;-35.352;149.036;2023-04-06T06:14:32;2.05;;;1.25;;
40022;SDS011;25713;-35.352;149.036;2023-04-06T06:17:02;2.67;;;1.25;;
40022;SDS011;25713;-35.352;149.036;2023-04-06T06:19:31;2.25;;;1.38;;
40022;SDS011;25713;-35.352;149.036;2023-04-06T06:22:05;2.42;;;1.13;;
40022;SDS011;25713;-35.352;149.036;2023-04-06T06:24:38;1.92;;;1.10;;
40022;SDS011;25713;-35.352;149.036;2023-04-06T06:27:08;2.65;;;1.30;;
40022;SDS011;25713;-35.352;149.036;2023-04-06T06:29:41;1.92;;;1.10;;
40022;SDS011;25713;-35.352;149.036;2023-04-06T06:32:11;1.40;;;1.15;;
40022;SDS011;25713;-35.352;149.036;2023-04-06T06:34:42;2.05;;;1.20;;
40022;SDS011;25713;-35.352;149.036;2023-04-06T06:37:12;1.08;;;0.98;;
40022;SDS011;25713;-35.352;149.036;2023-04-06T06:39:41;4.18;;;1.10;;
40022;SDS011;25713;-35.352;149.036;2023-04-06T06:42:11;3.50;;;1.35;;
40022;SDS011;25713;-35.352;149.036;2023-04-06T06:45:04;1.92;;;1.38;;
40022;SDS011;25713;-35.352;149.036;2023-04-06T06:47:34;2.28;;;1.58;;
40022;SDS011;25713;-35.352;149.036;2023-04-06T06:50:04;1.80;;;1.70;;
40022;SDS011;25713;-35.352;149.036;2023-04-06T06:52:34;1.55;;;1.45;;
40022;SDS011;25713;-35.352;149.036;2023-04-06T06:55:04;2.10;;;1.70;;
40022;SDS011;25713;-35.352;149.036;2023-04-06T06:57:35;5.60;;;2.20;;
40022;SDS011;25713;-35.352;149.036;2023-04-06T07:00:09;3.25;;;1.80;;
40022;SDS011;25713;-35.352;149.036;2023-04-06T07:02:39;3.13;;;1.80;;
40022;SDS011;25713;-35.352;149.036;2023-04-06T07:05:09;1.55;;;1.38;;
40022;SDS011;25713;-35.352;149.036;2023-04-06T07:07:38;3.95;;;1.55;;
40022;SDS011;25713;-35.352;149.036;2023-04-06T07:10:08;2.72;;;1.70;;
40022;SDS011;25713;-35.352;149.036;2023-04-06T07:12:42;2.97;;;1.40;;
40022;SDS011;25713;-35.352;149.036;2023-04-06T07:15:16;1.85;;;1.45;;
40022;SDS011;25713;-35.352;149.036;2023-04-06T07:17:46;1.83;;;1.65;;
40022;SDS011;25713;-35.352;149.036;2023-04-06T07:20:16;2.42;;;1.70;;
40022;SDS011;25713;-35.352;149.036;2023-04-06T07:22:45;1.60;;;1.40;;
40022;SDS011;25713;-35.352;149.036;2023-04-06T07:25:15;3.33;;;1.45;;
40022;SDS011;25713;-35.352;149.036;2023-04-06T07:27:45;3.05;;;1.60;;
40022;SDS011;25713;-35.352;149.036;2023-04-06T07:30:16;2.80;;;1.45;;
40022;SDS011;25713;-35.352;149.036;2023-04-06T07:32:46;2.30;;;1.50;;
40022;SDS011;25713;-35.352;149.036;2023-04-06T07:35:16;2.08;;;1.40;;
40022;SDS011;25713;-35.352;149.036;2023-04-06T07:37:45;2.15;;;1.40;;
40022;SDS011;25713;-35.352;149.036;2023-04-06T07:40:15;2.08;;;1.60;;
40022;SDS011;25713;-35.352;149.036;2023-04-06T07:42:44;2.03;;;1.60;;
40022;SDS011;25713;-35.352;149.036;2023-04-06T07:45:14;2.53;;;1.38;;
40022;SDS011;25713;-35.352;149.036;2023-04-06T07:47:47;1.70;;;1.40;;
40022;SDS011;25713;-35.352;149.036;2023-04-06T07:50:16;1.98;;;1.27;;
40022;SDS011;25713;-35.352;149.036;2023-04-06T07:52:46;1.60;;;1.50;;
40022;SDS011;25713;-35.352;149.036;2023-04-06T07:55:16;1.92;;;1.30;;
40022;SDS011;25713;-35.352;149.036;2023-04-06T07:57:45;2.22;;;1.40;;
40022;SDS011;25713;-35.352;149.036;2023-04-06T08:00:15;1.85;;;1.50;;
40022;SDS011;25713;-35.352;149.036;2023-04-06T08:02:47;1.58;;;1.35;;
40022;SDS011;25713;-35.352;149.036;2023-04-06T08:05:16;1.20;;;1.10;;
40022;SDS011;25713;-35.352;149.036;2023-04-06T08:07:46;2.58;;;1.58;;
40022;SDS011;25713;-35.352;149.036;2023-04-06T08:10:15;1.67;;;1.58;;
40022;SDS011;25713;-35.352;149.036;2023-04-06T08:12:45;1.42;;;1.17;;
40022;SDS011;25713;-35.352;149.036;2023-04-06T08:15:14;1.42;;;1.30;;
40022;SDS011;25713;-35.352;149.036;2023-04-06T08:17:46;1.60;;;1.40;;
40022;SDS011;25713;-35.352;149.036;2023-04-06T08:20:15;1.60;;;1.30;;
40022;SDS011;25713;-35.352;149.036;2023-04-06T08:22:45;2.72;;;1.35;;
40022;SDS011;25713;-35.352;149.036;2023-04-06T08:25:15;2.00;;;1.38;;
40022;SDS011;25713;-35.352;149.036;2023-04-06T08:27:45;1.75;;;1.27;;
40022;SDS011;25713;-35.352;149.036;2023-04-06T08:30:15;1.60;;;1.50;;
40022;SDS011;25713;-35.352;149.036;2023-04-06T08:32:46;2.90;;;1.40;;
40022;SDS011;25713;-35.352;149.036;2023-04-06T08:35:15;2.88;;;1.45;;
40022;SDS011;25713;-35.352;149.036;2023-04-06T08:37:45;1.63;;;1.30;;
40022;SDS011;25713;-35.352;149.036;2023-04-06T08:40:14;1.90;;;1.38;;
40022;SDS011;25713;-35.352;149.036;2023-04-06T08:42:44;2.03;;;1.40;;
40022;SDS011;25713;-35.352;149.036;2023-04-06T08:45:21;1.73;;;1.20;;
40022;SDS011;25713;-35.352;149.036;2023-04-06T08:47:53;1.75;;;1.23;;
40022;SDS011;25713;-35.352;149.036;2023-04-06T08:50:25;1.52;;;1.20;;
40022;SDS011;25713;-35.352;149.036;2023-04-06T08:52:55;1.30;;;1.20;;
40022;SDS011;25713;-35.352;149.036;2023-04-06T08:55:25;1.58;;;1.15;;
40022;SDS011;25713;-35.352;149.036;2023-04-06T08:57:55;1.73;;;1.23;;
40022;SDS011;25713;-35.352;149.036;2023-04-06T09:00:26;1.63;;;1.40;;
40022;SDS011;25713;-35.352;149.036;2023-04-06T09:02:59;1.63;;;1.48;;
40022;SDS011;25713;-35.352;149.036;2023-04-06T09:05:28;2.17;;;1.20;;
40022;SDS011;25713;-35.352;149.036;2023-04-06T09:07:58;1.83;;;1.20;;
40022;SDS011;25713;-35.352;149.036;2023-04-06T09:10:27;1.33;;;1.20;;
40022;SDS011;25713;-35.352;149.036;2023-04-06T09:13:04;2.20;;;1.38;;
40022;SDS011;25713;-35.352;149.036;2023-04-06T09:15:35;3.28;;;1.20;;
40022;SDS011;25713;-35.352;149.036;2023-04-06T09:18:06;1.50;;;1.40;;
40022;SDS011;25713;-35.352;149.036;2023-04-06T09:20:36;1.73;;;1.35;;
40022;SDS011;25713;-35.352;149.036;2023-04-06T09:23:06;1.40;;;1.27;;
40022;SDS011;25713;-35.352;149.036;2023-04-06T09:25:45;2.65;;;1.30;;
40022;SDS011;25713;-35.352;149.036;2023-04-06T09:28:15;3.88;;;1.60;;
40022;SDS011;25713;-35.352;149.036;2023-04-06T09:30:48;2.38;;;1.35;;
40022;SDS011;25713;-35.352;149.036;2023-04-06T09:33:23;2.08;;;1.38;;
40022;SDS011;25713;-35.352;149.036;2023-04-06T09:35:53;1.40;;;1.30;;
40022;SDS011;25713;-35.352;149.036;2023-04-06T09:38:22;1.52;;;1.20;;
40022;SDS011;25713;-35.352;149.036;2023-04-06T09:40:52;2.38;;;1.55;;
40022;SDS011;25713;-35.352;149.036;2023-04-06T09:43:24;1.90;;;1.40;;
40022;SDS011;25713;-35.352;149.036;2023-04-06T09:45:54;3.55;;;1.70;;
40022;SDS011;25713;-35.352;149.036;2023-04-06T09:48:27;2.33;;;1.40;;
40022;SDS011;25713;-35.352;149.036;2023-04-06T09:51:02;5.50;;;1.80;;
40022;SDS011;25713;-35.352;149.036;2023-04-06T09:53:34;2.00;;;1.60;;
40022;SDS011;25713;-35.352;149.036;2023-04-06T09:56:06;2.58;;;1.80;;
40022;SDS011;25713;-35.352;149.036;2023-04-06T09:58:39;2.92;;;1.92;;
40022;SDS011;25713;-35.352;149.036;2023-04-06T10:01:12;2.60;;;1.60;;
40022;SDS011;25713;-35.352;149.036;2023-04-06T10:03:47;1.85;;;1.45;;
40022;SDS011;25713;-35.352;149.036;2023-04-06T10:06:23;2.15;;;1.42;;
40022;SDS011;25713;-35.352;149.036;2023-04-06T10:08:58;2.55;;;1.63;;
40022;SDS011;25713;-35.352;149.036;2023-04-06T10:11:29;2.80;;;1.70;;
40022;SDS011;25713;-35.352;149.036;2023-04-06T10:13:59;2.03;;;1.48;;
40022;SDS011;25713;-35.352;149.036;2023-04-06T10:16:29;1.55;;;1.42;;
40022;SDS011;25713;-35.352;149.036;2023-04-06T10:19:04;2.30;;;1.52;;
40022;SDS011;25713;-35.352;149.036;2023-04-06T10:21:40;2.33;;;1.55;;
40022;SDS011;25713;-35.352;149.036;2023-04-06T10:24:11;2.05;;;1.48;;
40022;SDS011;25713;-35.352;149.036;2023-04-06T10:26:41;2.65;;;1.40;;
40022;SDS011;25713;-35.352;149.036;2023-04-06T10:29:11;2.17;;;1.63;;
40022;SDS011;25713;-35.352;149.036;2023-04-06T10:31:42;2.65;;;1.70;;
40022;SDS011;25713;-35.352;149.036;2023-04-06T10:34:13;1.85;;;1.38;;
40022;SDS011;25713;-35.352;149.036;2023-04-06T10:36:42;1.57;;;1.40;;
40022;SDS011;25713;-35.352;149.036;2023-04-06T10:39:12;2.85;;;1.60;;
40022;SDS011;25713;-35.352;149.036;2023-04-06T10:41:42;2.22;;;1.50;;
40022;SDS011;25713;-35.352;149.036;2023-04-06T10:44:17;1.85;;;1.40;;
40022;SDS011;25713;-35.352;149.036;2023-04-06T10:46:55;3.25;;;1.55;;
40022;SDS011;25713;-35.352;149.036;2023-04-06T10:49:30;2.08;;;1.77;;
40022;SDS011;25713;-35.352;149.036;2023-04-06T10:51:59;2.30;;;1.40;;
40022;SDS011;25713;-35.352;149.036;2023-04-06T10:54:28;2.67;;;1.30;;
40022;SDS011;25713;-35.352;149.036;2023-04-06T10:56:58;2.45;;;1.58;;
40022;SDS011;25713;-35.352;149.036;2023-04-06T10:59:28;1.85;;;1.60;;
40022;SDS011;25713;-35.352;149.036;2023-04-06T11:01:58;2.67;;;1.40;;
40022;SDS011;25713;-35.352;149.036;2023-04-06T11:04:27;2.08;;;1.42;;
40022;SDS011;25713;-35.352;149.036;2023-04-06T11:06:58;1.73;;;1.40;;
40022;SDS011;25713;-35.352;149.036;2023-04-06T11:09:28;1.73;;;1.45;;
40022;SDS011;25713;-35.352;149.036;2023-04-06T11:11:58;1.50;;;1.38;;
40022;SDS011;25713;-35.352;149.036;2023-04-06T11:14:27;1.40;;;1.30;;
40022;SDS011;25713;-35.352;149.036;2023-04-06T11:16:56;2.55;;;1.55;;
40022;SDS011;25713;-35.352;149.036;2023-04-06T11:19:26;1.27;;;1.17;;
40022;SDS011;25713;-35.352;149.036;2023-04-06T11:22:05;1.38;;;1.20;;
40022;SDS011;25713;-35.352;149.036;2023-04-06T11:24:35;3.20;;;1.67;;
40022;SDS011;25713;-35.352;149.036;2023-04-06T11:27:05;2.50;;;1.20;;
40022;SDS011;25713;-35.352;149.036;2023-04-06T11:29:38;2.53;;;1.50;;
40022;SDS011;25713;-35.352;149.036;2023-04-06T11:32:08;2.08;;;1.13;;
40022;SDS011;25713;-35.352;149.036;2023-04-06T11:34:37;1.98;;;1.35;;
40022;SDS011;25713;-35.352;149.036;2023-04-06T11:37:09;2.17;;;1.30;;
40022;SDS011;25713;-35.352;149.036;2023-04-06T11:39:39;2.13;;;1.67;;
40022;SDS011;25713;-35.352;149.036;2023-04-06T11:42:10;1.98;;;1.58;;
40022;SDS011;25713;-35.352;149.036;2023-04-06T11:44:42;1.63;;;1.30;;
40022;SDS011;25713;-35.352;149.036;2023-04-06T11:47:12;1.77;;;1.08;;
40022;SDS011;25713;-35.352;149.036;2023-04-06T11:49:42;1.30;;;1.20;;
40022;SDS011;25713;-35.352;149.036;2023-04-06T11:52:17;1.58;;;1.10;;
40022;SDS011;25713;-35.352;149.036;2023-04-06T11:54:47;1.50;;;1.40;;
40022;SDS011;25713;-35.352;149.036;2023-04-06T11:57:17;2.97;;;1.30;;
40022;SDS011;25713;-35.352;149.036;2023-04-06T11:59:48;1.55;;;1.10;;
40022;SDS011;25713;-35.352;149.036;2023-04-06T12:02:18;1.98;;;1.20;;
40022;SDS011;25713;-35.352;149.036;2023-04-06T12:04:47;1.65;;;1.50;;
40022;SDS011;25713;-35.352;149.036;2023-04-06T12:09:50;1.30;;;1.20;;
40022;SDS011;25713;-35.352;149.036;2023-04-06T12:12:19;1.23;;;1.08;;
40022;SDS011;25713;-35.352;149.036;2023-04-06T12:14:49;2.80;;;1.60;;
40022;SDS011;25713;-35.352;149.036;2023-04-06T12:17:18;1.27;;;1.15;;
40022;SDS011;25713;-35.352;149.036;2023-04-06T12:19:48;1.23;;;1.00;;
40022;SDS011;25713;-35.352;149.036;2023-04-06T12:22:17;2.00;;;1.50;;
40022;SDS011;25713;-35.352;149.036;2023-04-06T12:24:49;3.00;;;1.38;;
40022;SDS011;25713;-35.352;149.036;2023-04-06T12:27:18;2.90;;;1.40;;
40022;SDS011;25713;-35.352;149.036;2023-04-06T12:29:47;2.33;;;1.10;;
40022;SDS011;25713;-35.352;149.036;2023-04-06T12:32:17;2.50;;;1.30;;
40022;SDS011;25713;-35.352;149.036;2023-04-06T12:34:47;2.67;;;1.45;;
40022;SDS011;25713;-35.352;149.036;2023-04-06T12:37:16;3.05;;;1.30;;
40022;SDS011;25713;-35.352;149.036;2023-04-06T12:39:45;1.85;;;1.20;;
40022;SDS011;25713;-35.352;149.036;2023-04-06T12:42:17;1.77;;;1.27;;
40022;SDS011;25713;-35.352;149.036;2023-04-06T12:44:46;2.55;;;1.30;;
40022;SDS011;25713;-35.352;149.036;2023-04-06T12:47:16;1.77;;;1.30;;
40022;SDS011;25713;-35.352;149.036;2023-04-06T12:49:45;1.90;;;1.10;;
40022;SDS011;25713;-35.352;149.036;2023-04-06T12:52:14;1.38;;;1.23;;
40022;SDS011;25713;-35.352;149.036;2023-04-06T12:54:44;2.40;;;1.38;;
40022;SDS011;25713;-35.352;149.036;2023-04-06T12:57:16;1.98;;;1.20;;
40022;SDS011;25713;-35.352;149.036;2023-04-06T12:59:46;2.00;;;1.20;;
40022;SDS011;25713;-35.352;149.036;2023-04-06T13:07:16;2.15;;;1.20;;
40022;SDS011;25713;-35.352;149.036;2023-04-06T13:09:46;2.85;;;1.15;;
40022;SDS011;25713;-35.352;149.036;2023-04-06T13:12:17;2.13;;;1.20;;
40022;SDS011;25713;-35.352;149.036;2023-04-06T13:14:47;1.30;;;1.17;;
40022;SDS011;25713;-35.352;149.036;2023-04-06T13:17:16;1.30;;;1.00;;
40022;SDS011;25713;-35.352;149.036;2023-04-06T13:19:46;1.52;;;0.98;;
40022;SDS011;25713;-35.352;149.036;2023-04-06T13:22:15;1.65;;;1.13;;
40022;SDS011;25713;-35.352;149.036;2023-04-06T13:24:44;2.42;;;1.20;;
40022;SDS011;25713;-35.352;149.036;2023-04-06T13:27:14;1.20;;;0.98;;
40022;SDS011;25713;-35.352;149.036;2023-04-06T13:29:45;1.37;;;1.03;;
40022;SDS011;25713;-35.352;149.036;2023-04-06T13:32:15;1.35;;;1.20;;
40022;SDS011;25713;-35.352;149.036;2023-04-06T13:34:44;1.75;;;1.17;;
40022;SDS011;25713;-35.352;149.036;2023-04-06T13:37:13;1.23;;;1.00;;
40022;SDS011;25713;-35.352;149.036;2023-04-06T13:39:43;1.73;;;1.00;;
40022;SDS011;25713;-35.352;149.036;2023-04-06T13:42:12;2.13;;;1.05;;
40022;SDS011;25713;-35.352;149.036;2023-04-06T13:44:44;1.40;;;1.10;;
40022;SDS011;25713;-35.352;149.036;2023-04-06T13:47:13;1.30;;;1.10;;
40022;SDS011;25713;-35.352;149.036;2023-04-06T13:49:43;1.25;;;1.00;;
40022;SDS011;25713;-35.352;149.036;2023-04-06T13:52:12;1.60;;;1.00;;
40022;SDS011;25713;-35.352;149.036;2023-04-06T13:54:41;1.45;;;0.98;;
40022;SDS011;25713;-35.352;149.036;2023-04-06T13:57:11;2.70;;;1.30;;
40022;SDS011;25713;-35.352;149.036;2023-04-06T13:59:40;1.10;;;1.00;;
40022;SDS011;25713;-35.352;149.036;2023-04-06T14:02:12;1.17;;;0.93;;
40022;SDS011;25713;-35.352;149.036;2023-04-06T14:04:42;1.88;;;1.00;;
40022;SDS011;25713;-35.352;149.036;2023-04-06T14:07:11;1.83;;;0.93;;
40022;SDS011;25713;-35.352;149.036;2023-04-06T14:09:40;1.58;;;1.02;;
40022;SDS011;25713;-35.352;149.036;2023-04-06T14:12:10;1.85;;;0.85;;
40022;SDS011;25713;-35.352;149.036;2023-04-06T14:14:39;2.60;;;1.10;;
40022;SDS011;25713;-35.352;149.036;2023-04-06T14:17:10;3.28;;;1.25;;
40022;SDS011;25713;-35.352;149.036;2023-04-06T14:19:40;1.00;;;0.90;;
40022;SDS011;25713;-35.352;149.036;2023-04-06T14:22:09;1.83;;;0.82;;
40022;SDS011;25713;-35.352;149.036;2023-04-06T14:24:39;1.30;;;1.02;;
40022;SDS011;25713;-35.352;149.036;2023-04-06T14:27:08;2.55;;;0.93;;
40022;SDS011;25713;-35.352;149.036;2023-04-06T14:29:37;2.15;;;0.98;;
40022;SDS011;25713;-35.352;149.036;2023-04-06T14:32:07;1.15;;;1.00;;
40022;SDS011;25713;-35.352;149.036;2023-04-06T14:34:38;1.50;;;0.90;;
40022;SDS011;25713;-35.352;149.036;2023-04-06T14:37:07;1.63;;;1.00;;
40022;SDS011;25713;-35.352;149.036;2023-04-06T14:39:37;1.88;;;0.80;;
40022;SDS011;25713;-35.352;149.036;2023-04-06T14:42:06;2.30;;;0.88;;